LELC/MJV METAR and TAF weather

Enter ICAO airport designator
Station Type Date Time Source
LELC METAR 2022/11/30 10:30 UTC NOAA

LELC 301030Z 17003KT 110V230 CAVOK 16/07 Q1018 NOSIG


Station Type Date Time Source
LELC Decoded METAR 2022/11/30 10:30 UTC NOAA

Murcia / San Javier, Spain (LELC) 37-47N 000-48W 3M
Nov 30, 2022 - 05:30 AM EST / 2022.11.30 1030 UTC
Wind: from the S (170 degrees) at 3 MPH (3 KT) (direction variable):0
Visibility: greater than 7 mile(s):0
Temperature: 60 F (16 C)
Dew Point: 44 F (7 C)
Relative Humidity: 55%
Pressure (altimeter): 30.06 in. Hg (1018 hPa)
ob: LELC 301030Z 17003KT 110V230 CAVOK 16/07 Q1018 NOSIG
cycle: 10

Station Type Date Time Source
LELC TAF 2022/11/30 06:27 UTC NOAA

TAF LELC 300500Z 3006/0106 33010KT CAVOK TX18/3013Z TN08/3006Z
BECMG 3009/3011 06006KT

Example: see airport list